Time;durP1;ratioP1;P1;durP2;ratioP2;P2;SDS_P1;SDS_P2;PMS_P1;PMS_P2;Temp;Humidity;BMP_temperature;BMP_pressure;BME280_temperature;BME280_humidity;BME280_pressure;Samples;Min_cycle;Max_cycle;Signal;HPM_P1;HPM_P2
2022/03/27 00:01:31;;;;;;;8.85;1.40;;;;;;;4.54;40.08;102125.69;5042765;28;20021;-72
2022/03/27 00:03:57;;;;;;;3.55;2.03;;;;;;;4.50;40.31;102104.09;5024487;28;20027;-72
2022/03/27 00:06:23;;;;;;;5.85;1.48;;;;;;;4.57;40.04;102112.94;5042473;28;20025;-72
2022/03/27 00:08:48;;;;;;;2.42;1.33;;;;;;;4.58;40.06;102114.72;5042137;28;20029;-72
2022/03/27 00:11:26;;;;;;;3.67;1.38;;;;;;;4.58;39.96;102114.72;5024568;28;20509;-72
2022/03/27 00:14:11;;;;;;;3.90;1.45;;;;;;;4.66;39.63;102115.97;5042404;28;20040;-71
2022/03/27 00:16:37;;;;;;;4.70;1.30;;;;;;;4.57;39.58;102120.66;5041814;28;20037;-72
2022/03/27 00:19:02;;;;;;;5.47;1.45;;;;;;;4.52;39.59;102117.03;5042228;28;20040;-72
2022/03/27 00:21:28;;;;;;;7.93;1.23;;;;;;;4.57;39.91;102129.28;5042278;28;20040;-72
2022/03/27 00:23:54;;;;;;;3.50;1.50;;;;;;;4.51;39.78;102115.25;5042136;28;20044;-73
2022/03/27 00:26:20;;;;;;;3.53;1.50;;;;;;;4.54;39.83;102110.25;5042432;28;20604;-73
2022/03/27 00:28:46;;;;;;;4.53;1.20;;;;;;;4.47;39.76;102099.69;5042320;28;20064;-73
2022/03/27 00:31:12;;;;;;;3.28;1.05;;;;;;;4.47;39.89;102091.13;5042280;28;20029;-73
2022/03/27 00:33:40;;;;;;;2.67;0.80;;;;;;;4.49;39.75;102097.19;5024318;28;20065;-73
2022/03/27 00:36:09;;;;;;;1.95;1.20;;;;;;;4.50;39.72;102098.97;5042123;28;20036;-72
2022/03/27 00:38:35;;;;;;;3.90;1.30;;;;;;;4.52;39.82;102087.03;5041997;28;20082;-73
2022/03/27 00:41:01;;;;;;;2.50;1.35;;;;;;;4.50;39.94;102083.53;5042152;28;20069;-72
2022/03/27 00:43:27;;;;;;;3.92;1.30;;;;;;;4.48;39.96;102077.44;5041934;28;20027;-72
2022/03/27 00:45:53;;;;;;;5.65;1.63;;;;;;;4.44;40.09;102076.41;5042178;28;20394;-72
2022/03/27 00:48:20;;;;;;;4.25;1.10;;;;;;;4.38;40.48;102077.84;5042731;28;20025;-72
2022/03/27 00:50:47;;;;;;;2.80;1.20;;;;;;;4.34;40.44;102079.41;5042330;28;20018;-72
2022/03/27 00:53:13;;;;;;;3.55;1.58;;;;;;;4.22;40.80;102069.44;5043062;28;20025;-72
2022/03/27 00:55:39;;;;;;;4.70;1.60;;;;;;;4.21;40.67;102076.28;5045722;28;20041;-72
2022/03/27 00:58:05;;;;;;;5.68;1.50;;;;;;;4.16;40.87;102070.03;5045684;28;20052;-72
2022/03/27 01:00:45;;;;;;;2.63;1.23;;;;;;;4.19;40.75;102062.47;5045550;28;20037;-72
2022/03/27 01:03:13;;;;;;;3.70;0.90;;;;;;;4.16;40.83;102056.31;5045469;28;20037;-72
2022/03/27 01:05:40;;;;;;;12.70;1.92;;;;;;;4.14;40.87;102053.66;5045759;28;20036;-72
2022/03/27 01:08:07;;;;;;;2.90;1.20;;;;;;;4.10;40.91;102054.34;5044630;28;20032;-71
2022/03/27 01:10:34;;;;;;;2.90;1.15;;;;;;;4.03;41.29;102049.72;5045460;28;20048;-73
2022/03/27 01:13:04;;;;;;;4.57;1.08;;;;;;;3.97;41.48;102045.19;5045157;28;20026;-72
2022/03/27 01:15:53;;;;;;;4.47;1.45;;;;;;;3.88;41.59;102040.53;5046681;28;20029;-72
2022/03/27 01:18:20;;;;;;;9.38;1.55;;;;;;;3.75;41.74;102028.81;5016408;28;20037;-72
2022/03/27 01:20:46;;;;;;;5.80;1.50;;;;;;;3.69;42.28;102031.09;5045109;28;20049;-72
2022/03/27 01:23:13;;;;;;;7.28;1.75;;;;;;;3.56;42.32;102030.50;5044833;28;20028;-72
2022/03/27 01:25:41;;;;;;;5.32;1.58;;;;;;;3.53;42.47;102026.94;5044996;28;20033;-72
2022/03/27 01:28:08;;;;;;;8.02;1.50;;;;;;;3.44;42.71;102022.22;5045109;28;20492;-72
2022/03/27 01:30:35;;;;;;;7.18;1.55;;;;;;;3.31;42.85;102006.25;5044842;28;20029;-72
2022/03/27 01:33:01;;;;;;;4.68;1.83;;;;;;;3.26;42.73;102009.41;5026747;28;20021;-71
2022/03/27 01:35:27;;;;;;;5.88;1.85;;;;;;;3.25;43.08;102016.22;5044632;28;20612;-71
2022/03/27 01:37:52;;;;;;;1.65;1.10;;;;;;;3.24;43.14;102021.28;5044500;28;20037;-72
2022/03/27 01:40:18;;;;;;;4.93;1.55;;;;;;;3.18;43.13;102029.59;5026858;28;20033;-71
2022/03/27 01:42:44;;;;;;;3.50;1.38;;;;;;;3.12;43.23;102025.00;5044370;28;20106;-72
2022/03/27 01:45:11;;;;;;;2.63;1.25;;;;;;;3.10;43.17;102021.47;5044985;28;20050;-72
2022/03/27 01:47:37;;;;;;;9.27;1.80;;;;;;;3.09;43.41;102019.72;5045124;28;20212;-72
2022/03/27 01:50:05;;;;;;;2.10;1.10;;;;;;;3.10;43.14;102021.47;5044872;28;20025;-72
2022/03/27 01:52:31;;;;;;;5.22;1.20;;;;;;;3.09;43.38;102010.38;5044572;28;20028;-72
2022/03/27 01:54:57;;;;;;;5.28;1.40;;;;;;;3.05;43.50;102007.56;5027117;28;20052;-73
2022/03/27 01:57:22;;;;;;;4.55;1.50;;;;;;;3.03;43.51;102002.38;5044591;28;20017;-73
2022/03/27 01:59:47;;;;;;;5.20;1.50;;;;;;;3.03;43.55;102004.03;5044809;28;20052;-72
2022/03/27 02:02:13;;;;;;;4.22;1.45;;;;;;;3.01;43.61;102003.97;5044634;28;20394;-72
2022/03/27 02:04:38;;;;;;;4.25;1.80;;;;;;;2.99;43.36;102003.00;5044283;28;20033;-72
2022/03/27 02:07:05;;;;;;;5.38;1.20;;;;;;;3.01;43.37;102006.53;5044608;28;20025;-72
2022/03/27 02:09:30;;;;;;;4.20;1.30;;;;;;;2.95;43.45;101996.88;5044300;28;20120;-72
2022/03/27 02:11:56;;;;;;;4.93;1.20;;;;;;;2.99;43.47;101999.59;5044331;28;20061;-72
2022/03/27 02:14:21;;;;;;;5.03;1.92;;;;;;;3.06;43.49;102004.19;5044490;28;20052;-72
2022/03/27 02:16:47;;;;;;;4.03;1.67;;;;;;;3.07;43.51;102001.69;5044326;28;20052;-73
2022/03/27 02:19:12;;;;;;;2.85;1.35;;;;;;;3.10;43.19;101991.56;5044343;28;20026;-73
2022/03/27 02:21:39;;;;;;;4.20;1.10;;;;;;;3.12;43.23;101994.22;5044430;28;20025;-73
2022/03/27 02:24:06;;;;;;;5.97;1.15;;;;;;;3.12;43.07;101991.66;5026141;28;20044;-72
2022/03/27 02:26:33;;;;;;;5.05;1.70;;;;;;;3.16;42.90;101996.16;5044373;28;20026;-72
2022/03/27 02:28:58;;;;;;;4.40;1.70;;;;;;;3.14;43.06;101981.47;5044017;28;20474;-72
2022/03/27 02:31:24;;;;;;;6.25;1.30;;;;;;;3.18;42.85;101986.81;5044076;28;20064;-72
2022/03/27 02:33:49;;;;;;;3.88;1.38;;;;;;;3.21;42.85;101979.25;5043602;28;20032;-72
2022/03/27 02:36:16;;;;;;;4.35;1.48;;;;;;;3.24;42.88;101982.78;5043999;28;20017;-72
2022/03/27 02:38:42;;;;;;;3.88;1.50;;;;;;;3.20;42.76;101980.06;5043470;28;20078;-72
2022/03/27 02:41:07;;;;;;;6.22;2.85;;;;;;;3.25;42.43;101992.22;5043614;28;20072;-72
2022/03/27 02:43:33;;;;;;;2.22;1.40;;;;;;;3.30;42.44;101996.78;5043443;28;20037;-72
2022/03/27 02:45:59;;;;;;;5.00;1.40;;;;;;;3.28;42.24;101980.44;5043753;28;20104;-72
2022/03/27 02:48:26;;;;;;;4.28;1.30;;;;;;;3.36;42.23;101973.09;5043757;28;20348;-72
2022/03/27 02:50:51;;;;;;;5.80;1.90;;;;;;;3.38;42.12;101968.91;5043598;28;20081;-72
2022/03/27 02:53:16;;;;;;;5.35;1.50;;;;;;;3.36;42.20;101967.94;5043235;28;20108;-72
2022/03/27 02:55:42;;;;;;;6.10;1.58;;;;;;;3.31;42.49;101960.03;5043402;28;20075;-72
2022/03/27 02:58:08;;;;;;;4.88;1.50;;;;;;;3.26;42.70;101950.38;5043496;28;20381;-72
2022/03/27 03:00:34;;;;;;;2.58;1.27;;;;;;;3.27;42.53;101942.75;5043418;28;20029;-72
2022/03/27 03:02:59;;;;;;;2.00;1.08;;;;;;;3.30;42.92;101944.56;5043121;28;20040;-72
2022/03/27 03:05:25;;;;;;;4.28;1.45;;;;;;;3.21;43.23;101933.06;5043470;28;20051;-72
2022/03/27 03:07:50;;;;;;;5.63;1.55;;;;;;;3.25;43.51;101931.53;5043136;28;20041;-72
2022/03/27 03:10:16;;;;;;;4.97;1.50;;;;;;;3.25;43.74;101923.81;5043330;28;20071;-72
2022/03/27 03:12:42;;;;;;;3.42;1.20;;;;;;;3.22;44.19;101923.69;5043034;28;20032;-72
2022/03/27 03:15:08;;;;;;;4.82;1.73;;;;;;;3.17;44.69;101918.34;5043051;28;20022;-71
2022/03/27 03:17:34;;;;;;;3.42;1.67;;;;;;;3.15;45.02;101912.22;5042761;28;20028;-72
2022/03/27 03:19:59;;;;;;;3.65;1.30;;;;;;;3.13;45.39;101913.84;5043058;28;20025;-71
2022/03/27 03:22:25;;;;;;;4.75;1.30;;;;;;;3.08;45.85;101903.38;5024996;28;20085;-71
2022/03/27 03:24:50;;;;;;;3.33;1.40;;;;;;;3.08;46.15;101912.78;5043046;28;20025;-72
2022/03/27 03:27:16;;;;;;;3.78;1.13;;;;;;;3.06;47.09;101916.94;5043046;28;20021;-72
2022/03/27 03:29:41;;;;;;;5.35;1.73;;;;;;;3.01;47.44;101916.72;5042981;28;20025;-72
2022/03/27 03:32:07;;;;;;;7.05;1.45;;;;;;;2.89;47.75;101883.66;5042615;28;20030;-72
2022/03/27 03:34:32;;;;;;;1.65;1.13;;;;;;;3.06;47.95;101906.69;5042784;28;20022;-71
2022/03/27 03:36:58;;;;;;;2.88;1.10;;;;;;;3.04;47.96;101906.59;5042753;28;20104;-72
2022/03/27 03:39:24;;;;;;;3.88;1.38;;;;;;;3.07;48.30;101903.28;5024806;28;20088;-71
2022/03/27 03:41:49;;;;;;;9.25;1.58;;;;;;;3.00;48.81;101888.44;5042335;28;20037;-70
2022/03/27 03:44:14;;;;;;;4.18;1.70;;;;;;;3.13;48.98;101903.56;5042670;28;20029;-71
2022/03/27 03:46:40;;;;;;;4.63;2.05;;;;;;;3.17;49.44;101902.03;5042631;28;20045;-73
2022/03/27 03:49:08;;;;;;;3.72;1.55;;;;;;;3.19;49.93;101897.88;5042656;28;20028;-71
2022/03/27 03:51:34;;;;;;;4.00;1.20;;;;;;;3.17;50.45;101892.66;5042736;28;20022;-71
2022/03/27 03:54:01;;;;;;;4.25;1.55;;;;;;;3.12;50.47;101871.03;5042422;28;20041;-71
2022/03/27 03:56:26;;;;;;;3.90;1.50;;;;;;;3.16;50.53;101861.78;5042616;28;20048;-71
2022/03/27 03:58:52;;;;;;;4.30;1.55;;;;;;;3.20;51.05;101868.81;5042482;28;20461;-71
2022/03/27 04:01:17;;;;;;;5.38;1.50;;;;;;;3.18;51.26;101870.47;5042611;28;20024;-71
2022/03/27 04:03:43;;;;;;;5.55;1.98;;;;;;;3.13;51.38;101847.13;5042480;28;20017;-71
2022/03/27 04:06:08;;;;;;;6.00;2.70;;;;;;;3.16;51.74;101857.56;5024788;28;20397;-72
2022/03/27 04:08:34;;;;;;;5.10;1.67;;;;;;;3.15;52.18;101840.38;5042253;28;20032;-71
2022/03/27 04:10:59;;;;;;;5.40;1.38;;;;;;;3.13;52.57;101838.56;5042443;28;20477;-71
2022/03/27 04:13:25;;;;;;;4.07;1.58;;;;;;;3.04;52.77;101821.94;5042399;28;20017;-71
2022/03/27 04:15:50;;;;;;;7.00;1.73;;;;;;;2.94;53.31;101804.38;5024536;28;20486;-71
2022/03/27 04:18:15;;;;;;;6.30;1.60;;;;;;;3.06;53.70;101822.00;5042547;28;20021;-72
2022/03/27 04:20:41;;;;;;;2.25;1.30;;;;;;;3.07;53.97;101805.78;5042470;28;20029;-71
2022/03/27 04:23:07;;;;;;;5.18;1.77;;;;;;;3.02;54.02;101809.84;5041977;28;20025;-71
2022/03/27 04:25:32;;;;;;;4.15;1.48;;;;;;;3.05;54.43;101812.56;5042376;28;20362;-71
2022/03/27 04:28:04;;;;;;;7.25;1.75;;;;;;;3.02;54.52;101804.72;5044899;28;20052;-71
2022/03/27 04:30:29;;;;;;;3.20;1.30;;;;;;;3.06;54.50;101802.34;5046296;28;20029;-72
2022/03/27 04:32:55;;;;;;;2.95;1.70;;;;;;;3.02;55.13;101790.19;5046333;28;20033;-72
2022/03/27 04:35:20;;;;;;;2.50;1.30;;;;;;;3.04;54.74;101785.13;5046349;28;20106;-73
2022/03/27 04:37:47;;;;;;;3.78;1.42;;;;;;;3.03;54.89;101781.69;5045885;28;20052;-73
2022/03/27 04:40:13;;;;;;;4.43;1.35;;;;;;;2.94;54.92;101764.19;5046295;28;20133;-72
2022/03/27 04:42:41;;;;;;;8.40;1.85;;;;;;;3.00;54.64;101772.97;5045824;28;20049;-73
2022/03/27 04:45:07;;;;;;;3.05;1.48;;;;;;;2.99;55.37;101760.97;5046061;28;20495;-73
2022/03/27 04:47:34;;;;;;;6.82;1.60;;;;;;;2.95;55.30;101755.69;5045959;28;20033;-72
2022/03/27 04:50:00;;;;;;;7.55;1.80;;;;;;;2.94;55.19;101759.06;5046209;28;20493;-73
2022/03/27 04:52:25;;;;;;;4.45;1.42;;;;;;;2.96;55.62;101761.69;5046082;28;20030;-72
2022/03/27 04:54:50;;;;;;;2.78;1.30;;;;;;;3.02;55.73;101753.41;5045837;28;20032;-72
2022/03/27 04:57:16;;;;;;;5.25;1.75;;;;;;;3.10;56.12;101749.47;5027958;28;20021;-71
2022/03/27 04:59:42;;;;;;;2.55;1.63;;;;;;;3.14;56.23;101741.09;5046035;28;20052;-71
2022/03/27 05:02:07;;;;;;;4.97;1.50;;;;;;;3.20;56.37;101745.63;5045524;28;20021;-72
2022/03/27 05:04:33;;;;;;;5.70;1.85;;;;;;;3.11;56.52;101717.88;5045850;28;20021;-72
2022/03/27 05:06:58;;;;;;;6.00;1.40;;;;;;;3.27;56.34;101724.56;5027713;28;20025;-72
2022/03/27 05:09:23;;;;;;;6.93;1.90;;;;;;;3.33;56.19;101721.38;5045193;28;20017;-72
2022/03/27 05:11:49;;;;;;;1.85;1.20;;;;;;;3.24;56.29;101701.31;5045589;28;20110;-72
2022/03/27 05:14:15;;;;;;;6.30;1.95;;;;;;;3.28;57.03;101704.88;5045389;28;20052;-72
2022/03/27 05:16:40;;;;;;;5.57;2.00;;;;;;;3.40;57.56;101715.69;5045477;28;20022;-72
2022/03/27 05:19:05;;;;;;;4.03;1.27;;;;;;;3.50;57.44;101714.38;5045420;28;20037;-72
2022/03/27 05:21:35;;;;;;;4.55;1.48;;;;;;;3.57;57.33;101715.50;5045342;28;20089;-72
2022/03/27 05:24:01;;;;;;;4.93;1.25;;;;;;;3.69;57.57;101716.00;5026823;28;20139;-71
2022/03/27 05:26:27;;;;;;;3.78;1.58;;;;;;;3.78;57.99;101712.06;5027318;28;20033;-71
2022/03/27 05:28:53;;;;;;;4.22;1.95;;;;;;;3.88;57.96;101709.09;5045060;28;20121;-71
2022/03/27 05:31:19;;;;;;;5.65;1.17;;;;;;;3.96;58.13;101694.81;5044975;28;20386;-71
2022/03/27 05:33:44;;;;;;;5.20;1.50;;;;;;;4.20;57.88;101696.59;5044943;28;20540;-71
2022/03/27 05:36:10;;;;;;;6.82;1.60;;;;;;;4.37;57.67;101691.25;5044886;28;20025;-72
2022/03/27 05:38:40;;;;;;;4.55;1.73;;;;;;;4.54;57.51;101686.72;5044043;28;20033;-72
2022/03/27 05:41:06;;;;;;;2.75;1.15;;;;;;;4.62;57.29;101670.72;5026745;28;20136;-71
2022/03/27 05:43:32;;;;;;;10.85;2.60;;;;;;;4.67;56.86;101664.91;5044592;28;20057;-72
2022/03/27 05:45:57;;;;;;;7.13;1.42;;;;;;;4.77;56.71;101673.84;5044948;28;20127;-71
2022/03/27 05:48:23;;;;;;;5.15;1.50;;;;;;;4.88;56.50;101681.94;5026924;28;20095;-71
2022/03/27 05:50:48;;;;;;;5.57;2.30;;;;;;;4.74;56.45;101645.44;5043109;28;20048;-73
2022/03/27 05:53:15;;;;;;;3.88;1.40;;;;;;;4.99;55.86;101687.47;5026493;28;20080;-70
2022/03/27 05:55:41;;;;;;;9.05;1.38;;;;;;;5.06;56.21;101692.00;5044687;28;20047;-71
2022/03/27 05:58:07;;;;;;;6.25;1.48;;;;;;;5.08;55.96;101677.50;5044659;28;20028;-72
2022/03/27 06:00:33;;;;;;;4.68;1.50;;;;;;;5.18;56.00;101689.00;5044749;28;20025;-72
2022/03/27 06:02:59;;;;;;;8.45;1.70;;;;;;;5.24;55.97;101688.31;5044425;28;20113;-72
2022/03/27 06:05:24;;;;;;;8.05;1.73;;;;;;;5.36;55.69;101693.03;5026650;28;20013;-72
2022/03/27 06:07:53;;;;;;;5.95;1.40;;;;;;;5.45;56.12;101689.88;5044022;28;20157;-72
2022/03/27 06:10:27;;;;;;;4.40;1.85;;;;;;;5.52;56.25;101672.94;5044413;28;20105;-72
2022/03/27 06:12:53;;;;;;;2.78;1.05;;;;;;;5.65;56.13;101672.53;5044373;28;20160;-72
2022/03/27 06:15:20;;;;;;;3.35;1.45;;;;;;;5.77;55.89;101664.28;5044399;28;20509;-72
2022/03/27 06:17:48;;;;;;;7.97;1.60;;;;;;;5.92;55.64;101663.91;5044350;28;20032;-72
2022/03/27 06:20:17;;;;;;;3.72;1.23;;;;;;;6.11;55.20;101663.63;5044338;28;20025;-72
2022/03/27 06:22:44;;;;;;;5.53;1.25;;;;;;;6.28;55.01;101653.81;5043852;28;20083;-72
2022/03/27 06:25:12;;;;;;;3.08;0.98;;;;;;;6.51;54.67;101656.19;5044231;28;20033;-72
2022/03/27 06:27:38;;;;;;;5.78;1.65;;;;;;;6.60;53.93;101607.41;5044220;28;20025;-72
2022/03/27 06:30:09;;;;;;;4.22;0.98;;;;;;;6.95;53.33;101642.75;5044246;28;20033;-72
2022/03/27 06:32:36;;;;;;;3.53;1.17;;;;;;;7.20;52.72;101653.75;5044013;28;20079;-72
2022/03/27 06:35:05;;;;;;;6.95;1.50;;;;;;;7.34;52.24;101654.09;5043526;28;20711;-70
2022/03/27 06:37:32;;;;;;;4.30;1.27;;;;;;;7.30;52.26;101631.63;5025883;28;20021;-71
2022/03/27 06:39:58;;;;;;;5.20;1.42;;;;;;;7.43;52.41;101636.22;5043735;28;20362;-72
2022/03/27 06:42:26;;;;;;;3.55;1.33;;;;;;;7.66;52.31;101651.44;5043476;28;20056;-72
2022/03/27 06:44:52;;;;;;;5.47;1.23;;;;;;;7.85;51.93;101646.69;5043662;28;20052;-72
2022/03/27 06:47:21;;;;;;;6.57;1.52;;;;;;;7.91;51.52;101636.47;5043335;28;20021;-71
2022/03/27 06:49:48;;;;;;;5.15;1.40;;;;;;;7.86;51.11;101624.28;5043274;28;20025;-71
2022/03/27 06:52:15;;;;;;;3.28;1.02;;;;;;;7.86;51.04;101619.97;5042948;28;20100;-71
2022/03/27 06:54:42;;;;;;;8.80;1.67;;;;;;;7.83;51.34;101626.81;5043406;28;20018;-71
2022/03/27 06:57:07;;;;;;;3.92;1.50;;;;;;;7.69;52.04;101619.59;5043502;28;20222;-72
2022/03/27 07:03:01;;;;;;;4.25;1.38;;;;;;;7.70;52.40;101621.34;5043314;28;20049;-72
2022/03/27 07:05:04;;;;;;;6.75;1.60;;;;;;;8.05;52.70;101612.66;5043667;28;20040;-72
2022/03/27 07:07:29;;;;;;;5.45;1.70;;;;;;;8.15;52.76;101596.47;5043214;28;20034;-72
2022/03/27 07:09:55;;;;;;;8.98;2.72;;;;;;;8.27;52.53;101579.47;5043023;28;20048;-71
2022/03/27 07:12:20;;;;;;;8.32;1.73;;;;;;;8.32;52.54;101583.00;5043381;28;20036;-72
2022/03/27 07:14:46;;;;;;;6.10;1.25;;;;;;;8.35;52.84;101577.00;5043271;28;20022;-71
2022/03/27 07:17:15;;;;;;;6.90;1.60;;;;;;;8.26;53.35;101588.91;5025300;28;20017;-73
2022/03/27 07:19:41;;;;;;;11.63;1.48;;;;;;;8.31;53.44;101576.97;5043225;28;20095;-72
2022/03/27 07:22:06;;;;;;;6.15;1.83;;;;;;;8.59;53.20;101589.59;5025184;28;20462;-73
2022/03/27 07:24:31;;;;;;;7.75;1.95;;;;;;;8.70;53.06;101596.69;5042781;28;20194;-72
2022/03/27 07:26:57;;;;;;;8.80;2.38;;;;;;;8.66;53.01;101570.75;5043251;28;20045;-72
2022/03/27 07:29:22;;;;;;;10.38;2.80;;;;;;;8.70;53.40;101582.03;5042866;28;20064;-73
2022/03/27 07:31:49;;;;;;;7.97;2.60;;;;;;;8.86;53.43;101601.31;5043034;28;20033;-72
2022/03/27 07:34:16;;;;;;;6.30;2.22;;;;;;;9.17;53.29;101613.91;5025033;28;20097;-72
2022/03/27 07:36:42;;;;;;;5.45;2.63;;;;;;;9.46;52.53;101625.59;5025126;28;20056;-72
2022/03/27 07:39:09;;;;;;;9.02;2.80;;;;;;;9.57;52.55;101605.91;5042545;28;20199;-72
2022/03/27 07:41:34;;;;;;;10.57;2.58;;;;;;;9.87;52.17;101607.19;5042809;28;20047;-73
2022/03/27 07:44:00;;;;;;;5.45;2.47;;;;;;;10.08;51.63;101594.50;5042755;28;20108;-73
2022/03/27 07:46:26;;;;;;;12.90;3.78;;;;;;;10.31;51.26;101580.91;5042827;28;20085;-72
2022/03/27 07:48:52;;;;;;;11.75;2.47;;;;;;;10.34;51.16;101576.66;5042946;28;20052;-73
2022/03/27 07:51:17;;;;;;;17.08;3.40;;;;;;;10.47;51.14;101579.41;5042851;28;20025;-73
2022/03/27 07:53:42;;;;;;;13.90;2.85;;;;;;;10.78;50.73;101590.13;5042557;28;20089;-73
2022/03/27 07:56:08;;;;;;;14.27;2.95;;;;;;;11.01;50.33;101595.53;5043113;28;20060;-73
2022/03/27 07:58:34;;;;;;;15.35;3.03;;;;;;;11.23;49.80;101598.31;5042575;28;20428;-73
2022/03/27 08:00:59;;;;;;;12.82;4.25;;;;;;;11.49;49.67;101599.34;5024986;28;20049;-72
2022/03/27 08:03:24;;;;;;;15.60;3.67;;;;;;;11.63;48.53;101591.63;5045997;28;20025;-72
2022/03/27 08:05:50;;;;;;;18.33;4.03;;;;;;;11.58;48.73;101586.41;5046552;28;20022;-66
2022/03/27 08:08:16;;;;;;;14.75;4.85;;;;;;;11.59;48.90;101587.28;5046271;28;20021;-65
2022/03/27 08:10:43;;;;;;;20.17;4.97;;;;;;;11.56;48.75;101576.88;5046737;28;20030;-65
2022/03/27 08:13:08;;;;;;;16.58;4.07;;;;;;;11.47;48.95;101575.09;5028424;28;20024;-66
2022/03/27 08:15:34;;;;;;;22.90;4.15;;;;;;;11.29;49.18;101558.50;5046406;28;20022;-62
2022/03/27 08:17:59;;;;;;;20.58;4.40;;;;;;;11.19;49.18;101574.88;5045995;28;20047;-62
2022/03/27 08:20:26;;;;;;;16.75;5.00;;;;;;;11.06;49.73;101577.38;5046434;28;20023;-62
2022/03/27 08:22:52;;;;;;;16.65;4.80;;;;;;;11.19;49.75;101587.88;5046053;28;20472;-61
2022/03/27 08:28:02;;;;;;;17.45;4.60;;;;;;;11.55;49.35;101576.00;5045848;28;20033;-63
2022/03/27 08:30:27;;;;;;;20.45;5.85;;;;;;;11.75;48.96;101567.44;5046279;28;20017;-62
2022/03/27 08:32:52;;;;;;;21.02;6.20;;;;;;;11.98;48.20;101577.09;5045918;28;20022;-62
2022/03/27 08:35:18;;;;;;;23.40;6.35;;;;;;;12.13;48.44;101576.31;5046075;28;20363;-64
2022/03/27 08:37:43;;;;;;;14.75;6.35;;;;;;;12.37;47.73;101575.53;5045610;28;20021;-63
2022/03/27 08:40:09;;;;;;;19.58;5.88;;;;;;;12.48;47.45;101575.56;5044222;28;20032;-64
2022/03/27 08:42:35;;;;;;;20.25;5.07;;;;;;;12.71;47.25;101581.69;5045545;28;20061;-62
2022/03/27 08:45:01;;;;;;;24.60;6.53;;;;;;;12.93;47.03;101582.59;5045865;28;20491;-63
2022/03/27 08:47:28;;;;;;;18.50;5.55;;;;;;;13.22;46.59;101593.88;5045851;28;20433;-63
2022/03/27 08:50:11;;;;;;;19.77;6.13;;;;;;;13.44;46.03;101591.25;5045764;28;20028;-62
2022/03/27 08:52:40;;;;;;;22.40;6.68;;;;;;;13.75;45.65;101579.03;5045699;28;20021;-63
2022/03/27 08:55:08;;;;;;;27.15;6.65;;;;;;;14.15;44.68;101582.41;5045271;28;20060;-66
2022/03/27 08:57:56;;;;;;;25.70;6.47;;;;;;;14.37;43.90;101577.94;5044641;28;20049;-69
2022/03/27 09:00:23;;;;;;;22.92;5.50;;;;;;;14.49;43.68;101576.09;5045492;28;20018;-65
2022/03/27 09:02:49;;;;;;;22.77;6.38;;;;;;;14.65;43.14;101576.03;5045440;28;20389;-64
2022/03/27 09:05:15;;;;;;;22.98;5.60;;;;;;;14.76;42.81;101571.56;5045617;28;20025;-64
2022/03/27 09:07:41;;;;;;;22.52;5.85;;;;;;;14.93;42.37;101568.00;5045319;28;20048;-64
2022/03/27 09:10:11;;;;;;;24.13;7.85;;;;;;;14.97;42.73;101560.13;5044595;28;20029;-64
2022/03/27 09:12:37;;;;;;;30.13;7.40;;;;;;;15.35;42.19;101558.03;5045221;28;20017;-63
2022/03/27 09:15:08;;;;;;;24.73;5.57;;;;;;;15.77;41.32;101559.34;5044670;28;20025;-65
2022/03/27 09:17:54;;;;;;;18.88;5.55;;;;;;;16.12;40.48;101564.19;5027422;28;20026;-65
2022/03/27 09:20:51;;;;;;;17.88;4.57;;;;;;;16.34;40.79;101557.75;5045439;28;20324;-65
2022/03/27 09:23:24;;;;;;;20.30;5.88;;;;;;;16.55;39.15;101565.34;5028945;28;20045;-64
2022/03/27 09:25:52;;;;;;;27.58;6.63;;;;;;;16.46;39.17;101564.59;5045163;28;20030;-66
2022/03/27 09:28:39;;;;;;;20.27;6.43;;;;;;;16.52;39.29;101557.53;5045154;28;20076;-65
2022/03/27 09:31:19;;;;;;;24.58;6.05;;;;;;;16.70;38.93;101572.09;5044975;28;20026;-69
2022/03/27 09:33:55;;;;;;;22.35;5.60;;;;;;;16.97;38.94;101554.19;5044684;28;20140;-63
2022/03/27 09:36:27;;;;;;;24.98;6.45;;;;;;;17.31;37.93;101548.38;5044912;28;20211;-64
2022/03/27 09:39:00;;;;;;;32.35;5.93;;;;;;;17.28;37.88;101545.81;5044421;28;20025;-63
2022/03/27 09:41:35;;;;;;;14.48;4.75;;;;;;;17.43;37.74;101557.78;5044476;28;20037;-64
2022/03/27 09:44:07;;;;;;;28.00;6.75;;;;;;;17.60;37.39;101553.97;5044421;28;20052;-65
2022/03/27 09:46:47;;;;;;;;;;;;;;;17.84;36.96;101552.59;5045335;28;20513;-64
2022/03/27 09:49:17;;;;;;;21.15;6.07;;;;;;;17.99;36.71;101539.19;5044807;28;19919;-64
2022/03/27 09:51:53;;;;;;;20.75;5.97;;;;;;;18.29;35.68;101535.03;5043711;28;20022;-65
2022/03/27 09:54:18;;;;;;;18.67;5.22;;;;;;;18.46;35.62;101528.53;5044217;28;20024;-64
2022/03/27 09:56:44;;;;;;;22.20;5.53;;;;;;;18.68;35.51;101528.88;5044256;28;20017;-65
2022/03/27 09:59:29;;;;;;;24.25;5.78;;;;;;;19.04;35.45;101525.34;5044695;28;20096;-65
2022/03/27 10:01:56;;;;;;;20.42;5.45;;;;;;;19.43;34.97;101532.25;5044586;28;20044;-65
2022/03/27 10:04:21;;;;;;;17.70;5.35;;;;;;;19.84;33.52;101509.16;5044176;28;20028;-65
2022/03/27 10:06:46;;;;;;;21.88;5.43;;;;;;;20.03;33.63;101510.34;5044581;28;20017;-65
2022/03/27 10:09:13;;;;;;;20.25;4.97;;;;;;;20.15;32.67;101513.50;5043875;28;20426;-64
2022/03/27 10:11:41;;;;;;;26.35;6.05;;;;;;;20.25;32.32;101519.34;5043981;28;20338;-66
2022/03/27 10:14:08;;;;;;;17.88;4.72;;;;;;;20.30;32.54;101528.00;5025517;28;20017;-65
2022/03/27 10:16:42;;;;;;;19.95;4.75;;;;;;;20.16;32.17;101531.91;5044225;28;20045;-65
2022/03/27 10:19:33;;;;;;;15.00;4.63;;;;;;;19.99;32.97;101524.50;5042813;28;20075;-64
2022/03/27 10:22:01;;;;;;;15.38;4.95;;;;;;;20.23;32.50;101522.03;5043713;28;20051;-65
2022/03/27 10:24:32;;;;;;;19.67;4.82;;;;;;;20.28;32.57;101499.03;5043285;28;20033;-64
2022/03/27 10:27:02;;;;;;;22.50;5.00;;;;;;;20.78;32.06;101517.66;5044049;28;20025;-65
2022/03/27 10:29:28;;;;;;;19.92;5.20;;;;;;;21.08;31.49;101514.91;5043997;28;20026;-66
2022/03/27 10:31:56;;;;;;;17.20;4.93;;;;;;;21.38;31.22;101500.66;5043907;28;20034;-66
2022/03/27 10:34:23;;;;;;;17.45;5.32;;;;;;;21.53;30.35;101509.78;5043797;28;20022;-65
2022/03/27 10:36:59;;;;;;;18.80;5.72;;;;;;;21.54;30.21;101503.59;5043752;28;20032;-66
2022/03/27 10:39:34;;;;;;;19.98;4.53;;;;;;;21.42;29.95;101504.91;5043666;28;20021;-65
2022/03/27 10:42:15;;;;;;;16.67;4.85;;;;;;;21.09;30.07;101500.78;5043486;28;20049;-66
2022/03/27 10:44:58;;;;;;;17.17;4.97;;;;;;;20.59;30.84;101501.59;5043639;28;20037;-65
2022/03/27 10:47:25;;;;;;;20.52;5.10;;;;;;;20.38;31.58;101498.75;5042733;28;20044;-64
2022/03/27 10:50:04;;;;;;;15.68;4.32;;;;;;;20.45;31.66;101492.34;5043473;28;20028;-65
2022/03/27 10:52:54;;;;;;;14.75;4.95;;;;;;;20.51;31.33;101489.50;5043075;28;20026;-66
2022/03/27 10:55:19;;;;;;;17.67;3.85;;;;;;;20.56;31.25;101481.44;5042891;28;20083;-67
2022/03/27 10:57:46;;;;;;;13.35;3.63;;;;;;;20.63;31.05;101487.38;5043571;28;20029;-64
2022/03/27 11:00:13;;;;;;;10.77;3.70;;;;;;;20.59;30.74;101480.47;5043158;28;20025;-62
2022/03/27 11:02:42;;;;;;;16.40;4.25;;;;;;;20.58;31.02;101486.66;5042859;28;20030;-64
2022/03/27 11:05:07;;;;;;;14.55;4.10;;;;;;;20.48;31.04;101476.41;5041782;28;20059;-65
2022/03/27 11:07:33;;;;;;;12.73;3.63;;;;;;;20.49;30.66;101482.56;5043159;28;20021;-66
2022/03/27 11:09:58;;;;;;;11.25;3.60;;;;;;;20.13;30.66;101483.69;5042475;28;20337;-66
2022/03/27 11:12:26;;;;;;;19.13;4.25;;;;;;;19.47;31.67;101490.00;5042511;28;20047;-64
2022/03/27 11:14:54;;;;;;;10.88;3.45;;;;;;;18.69;32.88;101485.03;5042519;28;20144;-65
2022/03/27 11:17:36;;;;;;;13.63;3.65;;;;;;;17.99;33.97;101477.00;5043199;28;20152;-65
2022/03/27 11:20:04;;;;;;;13.48;3.78;;;;;;;17.46;34.98;101478.09;5042815;28;20037;-65
2022/03/27 11:22:59;;;;;;;11.50;4.00;;;;;;;17.22;35.70;101480.34;5042944;28;20075;-65
2022/03/27 11:25:36;;;;;;;9.23;2.97;;;;;;;17.42;35.84;101481.69;5042808;28;20043;-65
2022/03/27 11:28:12;;;;;;;15.18;3.83;;;;;;;17.59;35.60;101476.97;5042775;28;20029;-65
2022/03/27 11:30:48;;;;;;;16.52;3.58;;;;;;;17.75;35.57;101467.91;5043108;28;20028;-65
2022/03/27 11:33:18;;;;;;;10.13;2.90;;;;;;;17.75;35.32;101474.00;5042670;28;20025;-64
2022/03/27 11:36:34;;;;;;;9.68;2.72;;;;;;;17.24;35.55;101468.03;5042954;28;20017;-65
2022/03/27 11:39:01;;;;;;;12.45;3.20;;;;;;;16.58;36.78;101463.06;5039459;28;20049;-65